Time;durP1;ratioP1;P1;durP2;ratioP2;P2;SDS_P1;SDS_P2;PMS_P1;PMS_P2;Temp;Humidity;BMP_temperature;BMP_pressure;BME280_temperature;BME280_humidity;BME280_pressure;Samples;Min_cycle;Max_cycle;Signal;HPM_P1;HPM_P2
2022/05/02 00:01:14;;;;;;;4.10;1.35;;;;;;;;;;4993261;28;20050;-66
2022/05/02 00:03:45;;;;;;;3.53;1.33;;;;;;;;;;4995235;28;20046;-65
2022/05/02 00:06:15;;;;;;;2.63;1.25;;;;;;;;;;4976825;28;20525;-65
2022/05/02 00:08:46;;;;;;;7.03;1.90;;;;;;;;;;4960950;28;20561;-66
2022/05/02 00:11:16;;;;;;;4.10;1.50;;;;;;;;;;4995290;28;20513;-68
2022/05/02 00:13:47;;;;;;;3.92;1.23;;;;;;;;;;4995090;28;20042;-68
2022/05/02 00:16:18;;;;;;;5.10;1.10;;;;;;;;;;4993828;28;20042;-67
2022/05/02 00:18:49;;;;;;;3.53;1.45;;;;;;;;;;4994635;28;20053;-66
2022/05/02 00:21:19;;;;;;;3.95;1.90;;;;;;;;;;4994853;28;20375;-66
2022/05/02 00:23:50;;;;;;;17.27;10.02;;;;;;;;;;4953794;29;20415;-66
2022/05/02 00:26:21;;;;;;;10.05;5.05;;;;;;;;;;4953944;29;20055;-66
2022/05/02 00:28:51;;;;;;;10.60;4.10;;;;;;;;;;4938470;29;20118;-66
2022/05/02 00:31:23;;;;;;;3.63;1.45;;;;;;;;;;4953566;28;20047;-66
2022/05/02 00:33:54;;;;;;;3.97;1.70;;;;;;;;;;4964818;28;20055;-66
2022/05/02 00:36:26;;;;;;;3.95;1.52;;;;;;;;;;4972972;28;20046;-66
2022/05/02 00:38:56;;;;;;;5.47;1.13;;;;;;;;;;4972753;28;20083;-65
2022/05/02 00:41:28;;;;;;;3.10;1.02;;;;;;;;;;4940460;28;20063;-66
2022/05/02 00:43:59;;;;;;;3.63;1.92;;;;;;;;;;4972584;28;20534;-65
2022/05/02 00:46:30;;;;;;;4.07;1.58;;;;;;;;;;4972453;28;20047;-66
2022/05/02 00:49:00;;;;;;;4.00;1.27;;;;;;;;;;4956576;28;20517;-65
2022/05/02 00:51:31;;;;;;;4.82;1.27;;;;;;;;;;4941618;28;20059;-65
2022/05/02 00:54:02;;;;;;;2.92;1.38;;;;;;;;;;4972480;28;20050;-65
2022/05/02 00:56:33;;;;;;;5.43;1.42;;;;;;;;;;4972427;28;20062;-66
2022/05/02 00:59:05;;;;;;;4.60;1.52;;;;;;;;;;4972544;28;20054;-65
2022/05/02 01:01:36;;;;;;;2.60;1.38;;;;;;;;;;4983578;28;20059;-66
2022/05/02 01:04:06;;;;;;;4.68;1.15;;;;;;;;;;4972230;28;20054;-66
2022/05/02 01:09:27;;;;;;;4.38;1.20;;;;;;;;;;4985287;28;20077;-66
2022/05/02 01:11:57;;;;;;;4.38;1.33;;;;;;;;;;4971910;28;20422;-65
2022/05/02 01:14:28;;;;;;;3.90;1.38;;;;;;;;;;4952558;29;20055;-66
2022/05/02 01:16:58;;;;;;;4.30;1.15;;;;;;;;;;4906427;29;20054;-66
2022/05/02 01:19:30;;;;;;;6.60;1.65;;;;;;;;;;4952479;29;20070;-65
2022/05/02 01:22:00;;;;;;;6.22;1.30;;;;;;;;;;4952757;29;20062;-67
2022/05/02 01:24:38;;;;;;;4.28;1.40;;;;;;;;;;4905313;29;20059;-66
2022/05/02 01:27:10;;;;;;;5.03;1.25;;;;;;;;;;4905055;29;20066;-67
2022/05/02 01:29:42;;;;;;;2.85;1.35;;;;;;;;;;4952349;29;20066;-66
2022/05/02 01:32:14;;;;;;;4.10;1.70;;;;;;;;;;4920803;29;20435;-67
2022/05/02 01:34:46;;;;;;;5.60;1.60;;;;;;;;;;4952157;29;20055;-66
2022/05/02 01:37:17;;;;;;;3.22;1.30;;;;;;;;;;4952441;29;20499;-66
2022/05/02 01:39:47;;;;;;;8.23;1.20;;;;;;;;;;4952115;29;20107;-66
2022/05/02 01:42:18;;;;;;;3.50;1.52;;;;;;;;;;4937724;29;20051;-66
2022/05/02 01:44:49;;;;;;;8.88;1.80;;;;;;;;;;4932978;29;20048;-66
2022/05/02 01:47:20;;;;;;;4.40;1.70;;;;;;;;;;4947423;29;20070;-66
2022/05/02 01:49:50;;;;;;;4.75;1.83;;;;;;;;;;4994715;28;20053;-66
2022/05/02 01:52:21;;;;;;;5.50;1.50;;;;;;;;;;5006682;28;20057;-66
2022/05/02 01:54:52;;;;;;;5.22;1.52;;;;;;;;;;5030111;28;20057;-67
2022/05/02 01:57:22;;;;;;;14.45;2.10;;;;;;;;;;4996643;28;20528;-66
2022/05/02 01:59:53;;;;;;;6.00;1.70;;;;;;;;;;4997023;28;20509;-66
2022/05/02 02:02:23;;;;;;;3.47;1.33;;;;;;;;;;4990537;28;20050;-66
2022/05/02 02:07:43;;;;;;;3.40;1.55;;;;;;;;;;4990722;28;20546;-66
2022/05/02 02:10:14;;;;;;;4.38;1.80;;;;;;;;;;4958166;28;20077;-67
2022/05/02 02:12:44;;;;;;;8.85;1.85;;;;;;;;;;4990772;28;20053;-67
2022/05/02 02:15:15;;;;;;;4.70;1.70;;;;;;;;;;4990491;28;20558;-66
2022/05/02 02:17:46;;;;;;;3.67;1.50;;;;;;;;;;4990605;28;20054;-66
2022/05/02 02:20:17;;;;;;;4.50;1.70;;;;;;;;;;4990302;28;20062;-66
2022/05/02 02:22:47;;;;;;;5.00;1.83;;;;;;;;;;4970786;28;20067;-66
2022/05/02 02:25:18;;;;;;;3.85;1.38;;;;;;;;;;4971267;28;20062;-66
2022/05/02 02:27:49;;;;;;;4.78;1.80;;;;;;;;;;4939167;29;20055;-67
2022/05/02 02:30:20;;;;;;;5.13;1.60;;;;;;;;;;4932357;29;20060;-66
2022/05/02 02:32:51;;;;;;;7.43;1.52;;;;;;;;;;4932491;29;20565;-66
2022/05/02 02:35:22;;;;;;;6.68;2.97;;;;;;;;;;4900779;29;20411;-66
2022/05/02 02:37:53;;;;;;;3.58;1.63;;;;;;;;;;4931972;29;20071;-66
2022/05/02 02:40:24;;;;;;;5.13;1.85;;;;;;;;;;4945180;29;20056;-66
2022/05/02 02:42:55;;;;;;;5.75;1.85;;;;;;;;;;4889297;29;20055;-66
2022/05/02 02:45:26;;;;;;;5.40;2.28;;;;;;;;;;4932135;29;20419;-66
2022/05/02 02:47:57;;;;;;;7.97;1.77;;;;;;;;;;4932360;29;20059;-66
2022/05/02 02:50:27;;;;;;;4.15;1.85;;;;;;;;;;4932692;29;20071;-67
2022/05/02 02:52:58;;;;;;;3.63;1.85;;;;;;;;;;4932493;29;20063;-67
2022/05/02 02:55:29;;;;;;;4.97;1.77;;;;;;;;;;4947827;29;20063;-66
2022/05/02 02:58:00;;;;;;;5.78;1.70;;;;;;;;;;4932246;29;20067;-66
2022/05/02 03:00:31;;;;;;;4.30;1.40;;;;;;;;;;4942705;29;20120;-67
2022/05/02 03:03:02;;;;;;;4.70;1.73;;;;;;;;;;4951285;29;20538;-67
2022/05/02 03:08:23;;;;;;;4.78;1.95;;;;;;;;;;4965699;28;20574;-67
2022/05/02 03:10:55;;;;;;;2.17;1.48;;;;;;;;;;4974328;28;20059;-67
2022/05/02 03:13:25;;;;;;;5.13;2.33;;;;;;;;;;4974397;28;20542;-67
2022/05/02 03:15:57;;;;;;;4.55;1.73;;;;;;;;;;4942503;28;20499;-67
2022/05/02 03:18:28;;;;;;;5.95;2.08;;;;;;;;;;4974340;28;20438;-67
2022/05/02 03:20:58;;;;;;;8.77;2.53;;;;;;;;;;4974401;28;20438;-67
2022/05/02 03:23:29;;;;;;;5.32;2.35;;;;;;;;;;4987694;28;20054;-67
2022/05/02 03:26:00;;;;;;;6.20;2.65;;;;;;;;;;4993711;28;20394;-67
2022/05/02 03:28:30;;;;;;;3.63;1.73;;;;;;;;;;4961263;28;20066;-67
2022/05/02 03:31:01;;;;;;;9.63;2.20;;;;;;;;;;4993638;28;20054;-67
2022/05/02 03:33:32;;;;;;;8.32;2.25;;;;;;;;;;4973741;28;20047;-67
2022/05/02 03:36:04;;;;;;;6.93;2.88;;;;;;;;;;4987202;28;20061;-67
2022/05/02 03:38:34;;;;;;;3.33;1.85;;;;;;;;;;4945467;28;20083;-67
2022/05/02 03:41:05;;;;;;;9.50;2.10;;;;;;;;;;4960949;28;20506;-67
2022/05/02 03:43:36;;;;;;;5.78;1.95;;;;;;;;;;4945367;28;20047;-67
2022/05/02 03:46:07;;;;;;;6.50;2.33;;;;;;;;;;4993652;28;20050;-66
2022/05/02 03:48:38;;;;;;;5.95;2.03;;;;;;;;;;4993362;28;20050;-66
2022/05/02 03:51:08;;;;;;;7.47;2.30;;;;;;;;;;4993241;28;20046;-67
2022/05/02 03:53:39;;;;;;;5.90;2.33;;;;;;;;;;4992951;28;20058;-67
2022/05/02 03:56:10;;;;;;;5.65;2.45;;;;;;;;;;4976988;28;20055;-67
2022/05/02 03:58:40;;;;;;;6.72;2.67;;;;;;;;;;4944746;28;20057;-66
2022/05/02 04:01:11;;;;;;;8.90;3.13;;;;;;;;;;4992974;28;20050;-67
2022/05/02 04:03:41;;;;;;;6.20;2.20;;;;;;;;;;4992591;28;20047;-66
2022/05/02 04:06:13;;;;;;;4.70;2.00;;;;;;;;;;4960522;28;20062;-66
2022/05/02 04:08:44;;;;;;;5.22;2.13;;;;;;;;;;4992896;28;20054;-66
2022/05/02 04:11:14;;;;;;;6.82;2.97;;;;;;;;;;4992791;28;20069;-66
2022/05/02 04:13:44;;;;;;;6.07;2.80;;;;;;;;;;4992847;28;20046;-66
2022/05/02 04:16:15;;;;;;;6.13;2.65;;;;;;;;;;4960399;28;20062;-66
2022/05/02 04:18:46;;;;;;;7.57;2.30;;;;;;;;;;4960475;28;20054;-67
2022/05/02 04:21:17;;;;;;;5.57;2.40;;;;;;;;;;4991737;28;20046;-67
2022/05/02 04:23:48;;;;;;;5.30;2.50;;;;;;;;;;4992644;28;20046;-67
2022/05/02 04:26:18;;;;;;;7.22;2.72;;;;;;;;;;4960310;28;20084;-66
2022/05/02 04:28:49;;;;;;;10.63;2.55;;;;;;;;;;4976647;28;20122;-67
2022/05/02 04:31:20;;;;;;;8.68;3.50;;;;;;;;;;4972651;28;20058;-66
2022/05/02 04:33:51;;;;;;;6.95;2.30;;;;;;;;;;4973106;28;20078;-67
2022/05/02 04:36:22;;;;;;;8.63;2.00;;;;;;;;;;4972722;28;20070;-66
2022/05/02 04:38:53;;;;;;;5.97;2.50;;;;;;;;;;4957155;28;20074;-66
2022/05/02 04:41:30;;;;;;;7.72;2.72;;;;;;;;;;4951733;28;20054;-66
2022/05/02 04:44:00;;;;;;;5.93;2.30;;;;;;;;;;4943964;28;20090;-66
2022/05/02 04:46:31;;;;;;;4.72;2.38;;;;;;;;;;4953278;29;20071;-66
2022/05/02 04:49:02;;;;;;;6.75;2.60;;;;;;;;;;4953697;29;20124;-66
2022/05/02 04:51:33;;;;;;;11.50;2.35;;;;;;;;;;4922235;29;20067;-66
2022/05/02 04:54:04;;;;;;;9.23;2.53;;;;;;;;;;4953618;29;20071;-66
2022/05/02 04:56:34;;;;;;;5.53;2.60;;;;;;;;;;4953364;29;20043;-66
2022/05/02 04:59:05;;;;;;;10.35;2.50;;;;;;;;;;4953382;29;20059;-66
2022/05/02 05:01:36;;;;;;;5.03;2.40;;;;;;;;;;4953217;29;20063;-66
2022/05/02 05:04:07;;;;;;;6.55;2.72;;;;;;;;;;4953258;29;20059;-67
2022/05/02 05:06:38;;;;;;;5.50;2.38;;;;;;;;;;4914827;29;20504;-66
2022/05/02 05:09:09;;;;;;;8.82;2.97;;;;;;;;;;4904349;29;20417;-66
2022/05/02 05:12:07;;;;;;;9.60;2.33;;;;;;;;;;4896042;29;20523;-66
2022/05/02 05:18:17;;;;;;;5.47;2.25;;;;;;;;;;4895807;29;19924;-66
2022/05/02 05:21:06;;;;;;;8.40;2.60;;;;;;;;;;4895894;29;20048;-67
2022/05/02 05:24:31;;;;;;;4.43;2.28;;;;;;;;;;4918378;29;20059;-67
2022/05/02 05:27:35;;;;;;;5.03;2.47;;;;;;;;;;4952647;29;20058;-66
2022/05/02 05:30:08;;;;;;;7.53;2.70;;;;;;;;;;4952530;29;20168;-67
2022/05/02 05:33:04;;;;;;;5.22;2.60;;;;;;;;;;4951558;28;20081;-66
2022/05/02 05:35:45;;;;;;;7.03;2.35;;;;;;;;;;4932977;29;20170;-67
2022/05/02 05:38:42;;;;;;;6.88;2.60;;;;;;;;;;4933166;29;20052;-66
2022/05/02 05:41:18;;;;;;;8.43;2.17;;;;;;;;;;4933511;29;20523;-67
2022/05/02 05:44:19;;;;;;;8.57;2.50;;;;;;;;;;4945946;28;20127;-67
2022/05/02 05:47:25;;;;;;;5.07;2.40;;;;;;;;;;4971711;28;20573;-67
2022/05/02 05:50:11;;;;;;;4.30;2.33;;;;;;;;;;4923899;28;20466;-67
2022/05/02 05:52:54;;;;;;;5.75;2.20;;;;;;;;;;4971518;28;20043;-67
2022/05/02 05:55:31;;;;;;;11.30;2.97;;;;;;;;;;4951958;29;20089;-66
2022/05/02 05:58:37;;;;;;;6.05;2.58;;;;;;;;;;4952258;29;20052;-67
2022/05/02 06:01:14;;;;;;;4.00;2.40;;;;;;;;;;4952009;29;20059;-66
2022/05/02 06:04:06;;;;;;;7.22;2.90;;;;;;;;;;4952132;29;20055;-66
2022/05/02 06:06:37;;;;;;;11.98;2.83;;;;;;;;;;4952025;29;20191;-66
2022/05/02 06:09:10;;;;;;;7.18;2.50;;;;;;;;;;4951852;29;20047;-66
2022/05/02 06:11:45;;;;;;;9.20;2.50;;;;;;;;;;4956481;28;20059;-67
2022/05/02 06:14:21;;;;;;;6.13;2.80;;;;;;;;;;4904921;29;20134;-66
2022/05/02 06:19:46;;;;;;;7.90;2.40;;;;;;;;;;4935826;29;20055;-67
2022/05/02 06:22:20;;;;;;;7.95;2.50;;;;;;;;;;4951909;29;20098;-67
2022/05/02 06:24:55;;;;;;;8.10;2.50;;;;;;;;;;4932719;29;20066;-68
2022/05/02 06:27:26;;;;;;;4.57;2.45;;;;;;;;;;4879369;29;20052;-66
2022/05/02 06:29:59;;;;;;;5.35;2.40;;;;;;;;;;4875870;29;20064;-66
2022/05/02 06:32:40;;;;;;;4.22;2.15;;;;;;;;;;4889466;29;20548;-66
2022/05/02 06:35:11;;;;;;;5.15;2.20;;;;;;;;;;4863671;29;20508;-67
2022/05/02 06:38:35;;;;;;;7.07;2.42;;;;;;;;;;4894523;29;20059;-66
2022/05/02 06:41:27;;;;;;;7.35;2.25;;;;;;;;;;4860274;29;20057;-67
2022/05/02 06:44:24;;;;;;;6.32;2.50;;;;;;;;;;4875729;29;20065;-67
2022/05/02 06:47:20;;;;;;;4.60;2.10;;;;;;;;;;4856923;29;20053;-67
2022/05/02 06:49:55;;;;;;;10.18;3.05;;;;;;;;;;4833684;29;20062;-67
2022/05/02 06:52:32;;;;;;;4.53;2.42;;;;;;;;;;4824147;29;20054;-67
2022/05/02 06:55:16;;;;;;;8.55;3.10;;;;;;;;;;4838826;29;20426;-66
2022/05/02 06:58:02;;;;;;;5.43;2.35;;;;;;;;;;4838759;29;20503;-67
2022/05/02 07:00:47;;;;;;;4.88;2.40;;;;;;;;;;4853934;29;20057;-66
2022/05/02 07:04:08;;;;;;;4.60;2.42;;;;;;;;;;4839090;29;20062;-66
2022/05/02 07:07:16;;;;;;;7.03;2.20;;;;;;;;;;4873401;29;20057;-66
2022/05/02 07:10:08;;;;;;;8.60;2.65;;;;;;;;;;4857022;29;20053;-66
2022/05/02 07:12:49;;;;;;;5.05;2.30;;;;;;;;;;4857183;29;20065;-66
2022/05/02 07:15:45;;;;;;;6.95;2.97;;;;;;;;;;4867389;29;20053;-66
2022/05/02 07:18:52;;;;;;;4.75;2.40;;;;;;;;;;4838702;29;20057;-66
2022/05/02 07:21:30;;;;;;;7.75;2.90;;;;;;;;;;4838698;29;20518;-66
2022/05/02 07:24:14;;;;;;;4.22;2.25;;;;;;;;;;4808649;29;20092;-66
2022/05/02 07:26:58;;;;;;;7.65;2.35;;;;;;;;;;4838430;29;20511;-66
2022/05/02 07:29:33;;;;;;;5.57;2.15;;;;;;;;;;4808311;29;20050;-67
2022/05/02 07:32:07;;;;;;;7.13;2.35;;;;;;;;;;4838863;29;20074;-66
2022/05/02 07:34:41;;;;;;;7.05;2.40;;;;;;;;;;4762149;29;20049;-66
2022/05/02 07:37:15;;;;;;;6.38;2.63;;;;;;;;;;4856494;29;20049;-66
2022/05/02 07:39:48;;;;;;;8.60;2.83;;;;;;;;;;4856648;29;20057;-66
2022/05/02 07:42:24;;;;;;;5.05;2.40;;;;;;;;;;4874042;29;20079;-66
2022/05/02 07:44:56;;;;;;;13.38;2.40;;;;;;;;;;4894089;29;20624;-66
2022/05/02 07:47:33;;;;;;;6.22;2.50;;;;;;;;;;4894079;29;20060;-66
2022/05/02 07:50:05;;;;;;;6.80;2.50;;;;;;;;;;4862606;29;20060;-66
2022/05/02 07:52:41;;;;;;;10.98;2.97;;;;;;;;;;4894219;29;20425;-66
2022/05/02 07:55:14;;;;;;;8.00;2.45;;;;;;;;;;4863149;29;20072;-66
2022/05/02 07:57:48;;;;;;;5.20;2.53;;;;;;;;;;4897547;29;20061;-67
2022/05/02 08:00:19;;;;;;;5.40;2.25;;;;;;;;;;4866176;29;20044;-66
2022/05/02 08:02:50;;;;;;;8.02;2.47;;;;;;;;;;4897335;29;20549;-66
2022/05/02 08:05:21;;;;;;;5.57;2.20;;;;;;;;;;4907709;29;20057;-66
2022/05/02 08:07:56;;;;;;;7.00;2.42;;;;;;;;;;4897159;29;20063;-66
2022/05/02 08:10:36;;;;;;;6.15;2.40;;;;;;;;;;4915494;29;20048;-66
2022/05/02 08:13:38;;;;;;;4.55;2.42;;;;;;;;;;4937929;29;20526;-67
2022/05/02 08:16:14;;;;;;;6.07;3.03;;;;;;;;;;4938774;29;20063;-66
2022/05/02 08:19:16;;;;;;;7.05;2.65;;;;;;;;;;4953847;29;20059;-66
2022/05/02 08:28:33;;;;;;;6.35;2.10;;;;;;;;;;4915665;29;20071;-66
2022/05/02 08:31:19;;;;;;;5.15;2.50;;;;;;;;;;4899957;29;20592;-66
2022/05/02 08:34:18;;;;;;;9.38;2.80;;;;;;;;;;4925720;29;20056;-66
2022/05/02 08:37:11;;;;;;;4.22;2.63;;;;;;;;;;4896701;29;20071;-66
2022/05/02 08:40:05;;;;;;;5.45;2.65;;;;;;;;;;4896986;29;20060;-66
2022/05/02 08:43:03;;;;;;;6.20;2.35;;;;;;;;;;4896564;29;20090;-66
2022/05/02 08:46:10;;;;;;;7.85;2.63;;;;;;;;;;4896363;29;20564;-67
2022/05/02 08:52:23;;;;;;;;;;;;;;;;;;4912421;29;20543;-66
2022/05/02 08:55:09;;;;;;;5.53;2.17;;;;;;;;;;4877760;29;19924;-66
2022/05/02 08:58:03;;;;;;;6.70;2.50;;;;;;;;;;4877468;29;20053;-67
2022/05/02 09:01:18;;;;;;;5.65;2.08;;;;;;;;;;4877477;29;20065;-66
2022/05/02 09:04:20;;;;;;;5.75;2.88;;;;;;;;;;4857693;29;20183;-66
2022/05/02 09:06:50;;;;;;;5.40;2.80;;;;;;;;;;4828359;29;20061;-66
2022/05/02 09:09:50;;;;;;;5.45;2.83;;;;;;;;;;4858841;29;20054;-66
2022/05/02 09:12:47;;;;;;;7.18;2.40;;;;;;;;;;4839985;29;20050;-66
2022/05/02 09:15:41;;;;;;;4.25;2.45;;;;;;;;;;4807455;29;20066;-66
2022/05/02 09:18:42;;;;;;;6.95;2.47;;;;;;;;;;4822077;29;20099;-66
2022/05/02 09:21:36;;;;;;;8.88;3.08;;;;;;;;;;4785416;30;20058;-67
2022/05/02 09:24:13;;;;;;;9.05;3.97;;;;;;;;;;4785580;30;20051;-66
2022/05/02 09:27:09;;;;;;;7.85;3.65;;;;;;;;;;4818054;29;20507;-67
2022/05/02 09:29:45;;;;;;;6.82;3.53;;;;;;;;;;4821839;29;20897;-66
2022/05/02 09:32:33;;;;;;;9.85;3.92;;;;;;;;;;4821582;29;20415;-66
2022/05/02 09:35:06;;;;;;;10.32;4.25;;;;;;;;;;4821945;29;20054;-67
2022/05/02 09:37:41;;;;;;;19.70;4.68;;;;;;;;;;4806462;29;20058;-66
2022/05/02 09:40:17;;;;;;;17.05;4.80;;;;;;;;;;4836082;29;20596;-67
2022/05/02 09:43:18;;;;;;;17.20;4.88;;;;;;;;;;4827597;29;20054;-66
2022/05/02 09:52:07;;;;;;;21.60;5.95;;;;;;;;;;4883588;29;20061;-67
2022/05/02 09:58:04;;;;;;;7.35;3.60;;;;;;;;;;4917629;29;20063;-66
2022/05/02 10:01:17;;;;;;;7.50;3.83;;;;;;;;;;4935973;29;20060;-68
2022/05/02 10:04:14;;;;;;;13.20;4.28;;;;;;;;;;4895274;29;20067;-66
2022/05/02 10:06:54;;;;;;;9.98;3.90;;;;;;;;;;4879463;29;20057;-66
2022/05/02 10:09:35;;;;;;;10.02;4.18;;;;;;;;;;4900639;29;20056;-66
2022/05/02 10:12:30;;;;;;;9.77;3.92;;;;;;;;;;4914087;29;20066;-65
2022/05/02 10:15:22;;;;;;;8.23;3.45;;;;;;;;;;4913669;29;20063;-68
2022/05/02 10:18:39;;;;;;;9.98;4.35;;;;;;;;;;4913432;29;20055;-67
2022/05/02 10:21:23;;;;;;;10.38;4.35;;;;;;;;;;4913968;29;20067;-67
2022/05/02 10:24:02;;;;;;;7.93;3.83;;;;;;;;;;4913843;29;20051;-67
2022/05/02 10:26:52;;;;;;;11.30;4.32;;;;;;;;;;4913689;29;20071;-68
2022/05/02 10:29:50;;;;;;;10.68;4.40;;;;;;;;;;4913758;29;20185;-68
2022/05/02 10:32:44;;;;;;;15.32;7.40;;;;;;;;;;4929087;29;20072;-68
2022/05/02 10:35:17;;;;;;;11.55;5.05;;;;;;;;;;4908236;29;20056;-68
2022/05/02 10:37:57;;;;;;;10.57;4.93;;;;;;;;;;4913606;29;20060;-68
2022/05/02 10:40:42;;;;;;;11.73;5.03;;;;;;;;;;4928724;28;20062;-71
2022/05/02 10:43:27;;;;;;;9.60;4.53;;;;;;;;;;4957864;28;20059;-72
2022/05/02 10:46:00;;;;;;;12.35;4.32;;;;;;;;;;4990164;28;20054;-70
2022/05/02 10:48:58;;;;;;;14.70;6.05;;;;;;;;;;4957537;28;20406;-70
2022/05/02 10:52:03;;;;;;;14.23;5.22;;;;;;;;;;4951287;28;20050;-68
2022/05/02 10:54:52;;;;;;;10.57;5.10;;;;;;;;;;4897808;29;20674;-69
2022/05/02 10:57:31;;;;;;;9.77;4.38;;;;;;;;;;4897906;29;20052;-68
2022/05/02 11:00:09;;;;;;;13.00;5.18;;;;;;;;;;4913306;29;20056;-72
2022/05/02 11:03:08;;;;;;;15.60;4.47;;;;;;;;;;4913338;29;20420;-72
2022/05/02 11:05:59;;;;;;;12.93;4.40;;;;;;;;;;4913023;29;20551;-71
2022/05/02 11:08:49;;;;;;;16.95;9.68;;;;;;;;;;4894093;29;20052;-69
2022/05/02 11:11:48;;;;;;;11.20;4.22;;;;;;;;;;4863440;29;20053;-66
2022/05/02 11:14:43;;;;;;;11.70;4.47;;;;;;;;;;4894019;29;20057;-67
2022/05/02 11:17:17;;;;;;;9.45;4.57;;;;;;;;;;4829154;29;20069;-67
2022/05/02 11:22:56;;;;;;;10.57;4.32;;;;;;;;;;4838236;29;20133;-67
2022/05/02 11:25:39;;;;;;;9.40;4.20;;;;;;;;;;4822734;29;20086;-67
2022/05/02 11:28:29;;;;;;;11.30;5.57;;;;;;;;;;4838432;29;20644;-68
2022/05/02 11:31:17;;;;;;;10.80;4.45;;;;;;;;;;4844789;29;20054;-70
2022/05/02 11:34:03;;;;;;;10.93;3.60;;;;;;;;;;4860264;29;20053;-69
2022/05/02 11:36:44;;;;;;;7.40;2.72;;;;;;;;;;4860311;29;20066;-67
2022/05/02 11:39:42;;;;;;;5.80;2.40;;;;;;;;;;4832873;29;20192;-67
2022/05/02 11:42:18;;;;;;;8.73;3.13;;;;;;;;;;4847010;29;20079;-67
2022/05/02 11:45:11;;;;;;;15.95;9.63;;;;;;;;;;4859710;29;20050;-67
2022/05/02 11:47:41;;;;;;;4.95;2.05;;;;;;;;;;4859692;29;20053;-67
2022/05/02 11:50:14;;;;;;;5.57;2.30;;;;;;;;;;4844815;29;20057;-67
2022/05/02 11:52:59;;;;;;;5.85;2.10;;;;;;;;;;4844287;29;20050;-68
2022/05/02 11:55:33;;;;;;;4.55;2.28;;;;;;;;;;4872271;29;20056;-68
2022/05/02 11:58:17;;;;;;;4.43;2.50;;;;;;;;;;4910246;29;20060;-69
2022/05/02 12:00:53;;;;;;;5.57;2.15;;;;;;;;;;4934736;29;20056;-69
2022/05/02 12:03:25;;;;;;;4.45;2.40;;;;;;;;;;4910555;29;20052;-70
2022/05/02 12:06:03;;;;;;;4.93;2.53;;;;;;;;;;4888507;29;20072;-76
2022/05/02 12:08:38;;;;;;;6.30;2.90;;;;;;;;;;4914861;29;20091;-71
2022/05/02 12:11:11;;;;;;;7.50;2.92;;;;;;;;;;4934625;29;20499;-69
2022/05/02 12:13:47;;;;;;;7.78;3.03;;;;;;;;;;4903142;29;20071;-67
2022/05/02 12:16:19;;;;;;;7.43;3.55;;;;;;;;;;4918805;29;20055;-68
2022/05/02 12:18:55;;;;;;;6.68;3.42;;;;;;;;;;4934821;29;20060;-66
2022/05/02 12:21:48;;;;;;;6.85;3.72;;;;;;;;;;4920651;29;20496;-66
2022/05/02 12:24:33;;;;;;;11.40;3.47;;;;;;;;;;4953531;29;20423;-66
2022/05/02 12:27:08;;;;;;;5.88;2.80;;;;;;;;;;4968633;28;20070;-66
2022/05/02 12:29:44;;;;;;;5.15;2.30;;;;;;;;;;4972825;28;20491;-67
2022/05/02 12:32:26;;;;;;;4.93;2.40;;;;;;;;;;4925271;28;20054;-67
2022/05/02 12:35:00;;;;;;;7.32;2.72;;;;;;;;;;4957189;28;20074;-66
2022/05/02 12:37:39;;;;;;;4.13;1.92;;;;;;;;;;4972904;28;20154;-67
2022/05/02 12:40:11;;;;;;;4.35;2.70;;;;;;;;;;4953292;29;20063;-67
2022/05/02 12:42:55;;;;;;;3.92;2.30;;;;;;;;;;4943263;28;20518;-67
2022/05/02 12:45:26;;;;;;;6.40;2.55;;;;;;;;;;4976220;28;20084;-67
2022/05/02 12:48:15;;;;;;;5.00;2.13;;;;;;;;;;4997216;28;20592;-67
2022/05/02 12:50:48;;;;;;;4.15;2.33;;;;;;;;;;5011222;28;20052;-66
2022/05/02 12:56:16;;;;;;;3.53;2.40;;;;;;;;;;4978931;28;20046;-67
2022/05/02 13:01:48;;;;;;;4.43;2.83;;;;;;;;;;4971844;28;20051;-66
2022/05/02 13:04:22;;;;;;;5.97;3.30;;;;;;;;;;4936687;29;20435;-66
2022/05/02 13:06:58;;;;;;;4.30;2.30;;;;;;;;;;4933292;29;20501;-66
2022/05/02 13:09:39;;;;;;;5.35;2.45;;;;;;;;;;4933500;29;20067;-66
2022/05/02 13:12:12;;;;;;;3.88;2.38;;;;;;;;;;4933584;29;20055;-66
2022/05/02 13:14:44;;;;;;;4.07;2.60;;;;;;;;;;4918254;29;20067;-66
2022/05/02 13:17:15;;;;;;;4.35;2.38;;;;;;;;;;4917533;29;20549;-66
2022/05/02 13:24:24;;;;;;;4.00;2.70;;;;;;;;;;5041236;27;2745934;-64
2022/05/02 13:27:11;;;;;;;4.00;2.60;;;;;;;;;;5086679;28;20059;-64
2022/05/02 13:30:11;;;;;;;5.68;2.45;;;;;;;;;;5053379;28;20052;-65
2022/05/02 13:32:57;;;;;;;3.50;2.00;;;;;;;;;;5086605;28;20052;-64
2022/05/02 13:35:33;;;;;;;2.78;1.50;;;;;;;;;;5070593;28;20056;-64
2022/05/02 13:38:14;;;;;;;3.42;1.98;;;;;;;;;;5070757;28;20048;-67
2022/05/02 13:40:55;;;;;;;;;;;;;;;;;;5047338;28;20060;-70
2022/05/02 13:43:58;;;;;;;3.00;1.70;;;;;;;;;;4995859;28;19925;-70
2022/05/02 13:46:54;;;;;;;2.70;2.42;;;;;;;;;;5028800;28;20574;-70
2022/05/02 13:49:52;;;;;;;;;;;;;;;;;;4933610;28;20059;-68
2022/05/02 13:52:46;;;;;;;1.83;0.95;;;;;;;;;;4947949;28;19929;-66
2022/05/02 13:55:45;;;;;;;4.63;1.70;;;;;;;;;;4947951;28;20059;-66
2022/05/02 13:58:49;;;;;;;2.55;1.40;;;;;;;;;;4937809;28;20549;-66
2022/05/02 14:01:32;;;;;;;3.03;1.00;;;;;;;;;;4986482;28;20065;-65
2022/05/02 14:09:47;;;;;;;1.95;0.70;;;;;;;;;;5005523;28;20042;-64
2022/05/02 14:12:24;;;;;;;3.05;1.88;;;;;;;;;;4957189;28;20062;-64
2022/05/02 14:15:01;;;;;;;1.73;1.00;;;;;;;;;;4985502;28;20534;-63
2022/05/02 14:17:58;;;;;;;2.35;0.60;;;;;;;;;;4969360;28;20050;-65
2022/05/02 14:20:33;;;;;;;1.00;0.70;;;;;;;;;;4969617;28;20053;-64
2022/05/02 14:23:07;;;;;;;1.67;0.80;;;;;;;;;;4985362;28;20494;-64
2022/05/02 14:25:46;;;;;;;2.53;0.80;;;;;;;;;;4968822;28;20039;-64
2022/05/02 14:28:22;;;;;;;2.50;0.63;;;;;;;;;;5005377;28;20062;-63
2022/05/02 14:31:04;;;;;;;2.92;1.00;;;;;;;;;;5005297;28;20058;-63
2022/05/02 14:33:39;;;;;;;1.33;0.82;;;;;;;;;;4984655;28;20163;-64
2022/05/02 14:36:12;;;;;;;3.17;0.80;;;;;;;;;;5004083;28;20050;-63
2022/05/02 14:38:44;;;;;;;1.10;0.57;;;;;;;;;;4972543;28;20063;-66
2022/05/02 14:41:15;;;;;;;2.13;0.90;;;;;;;;;;4978391;28;20055;-66
2022/05/02 14:43:46;;;;;;;2.55;0.75;;;;;;;;;;4991929;28;20062;-66
2022/05/02 14:46:20;;;;;;;0.75;0.50;;;;;;;;;;4959829;28;20058;-65
2022/05/02 14:48:53;;;;;;;1.95;1.20;;;;;;;;;;4959795;28;20061;-64
2022/05/02 14:51:29;;;;;;;3.67;1.20;;;;;;;;;;4975185;28;20046;-64
2022/05/02 14:54:02;;;;;;;2.55;1.42;;;;;;;;;;4956762;28;20070;-64
2022/05/02 14:56:41;;;;;;;6.97;2.55;;;;;;;;;;4972347;28;20062;-64
2022/05/02 14:59:13;;;;;;;3.85;1.55;;;;;;;;;;4972590;28;20054;-65
2022/05/02 15:01:45;;;;;;;2.67;1.30;;;;;;;;;;4972362;28;20070;-65
2022/05/02 15:04:21;;;;;;;1.88;1.27;;;;;;;;;;4989876;28;20065;-64
2022/05/02 15:06:55;;;;;;;2.42;1.23;;;;;;;;;;5011310;28;20429;-66
2022/05/02 15:10:13;;;;;;;1.55;1.02;;;;;;;;;;5011390;28;20058;-68
2022/05/02 15:13:08;;;;;;;1.70;0.50;;;;;;;;;;5051950;28;20404;-66
2022/05/02 15:16:03;;;;;;;1.20;0.63;;;;;;;;;;5054186;28;20053;-66
2022/05/02 15:21:42;;;;;;;2.08;1.48;;;;;;;;;;5111027;28;20043;-65
2022/05/02 15:24:54;;;;;;;2.15;1.10;;;;;;;;;;5060466;28;20047;-64
2022/05/02 15:36:40;;;;;;;1.67;0.77;;;;;;;;;;4971618;28;20070;-64
2022/05/02 15:39:24;;;;;;;1.23;0.70;;;;;;;;;;4955802;28;20059;-64
2022/05/02 15:42:03;;;;;;;1.98;0.70;;;;;;;;;;4932727;29;20044;-64
2022/05/02 15:44:37;;;;;;;5.22;1.00;;;;;;;;;;4917226;29;20063;-64
2022/05/02 15:47:25;;;;;;;1.38;0.70;;;;;;;;;;4931881;29;20052;-64
2022/05/02 15:49:59;;;;;;;1.48;0.90;;;;;;;;;;4932868;29;20511;-64
2022/05/02 15:52:30;;;;;;;1.30;0.60;;;;;;;;;;4932810;29;20059;-64
2022/05/02 15:55:03;;;;;;;1.38;0.60;;;;;;;;;;4932720;29;20052;-63
2022/05/02 15:57:46;;;;;;;1.30;0.70;;;;;;;;;;4916855;29;20063;-63
2022/05/02 16:00:28;;;;;;;1.38;0.85;;;;;;;;;;4932813;29;20531;-64
2022/05/02 16:03:09;;;;;;;1.58;0.90;;;;;;;;;;4916824;29;20392;-68
2022/05/02 16:06:05;;;;;;;1.45;0.60;;;;;;;;;;4946726;29;20059;-66
2022/05/02 16:11:35;;;;;;;2.33;0.70;;;;;;;;;;4990541;28;20042;-66
2022/05/02 16:14:05;;;;;;;6.88;3.65;;;;;;;;;;4990530;28;20139;-67
2022/05/02 16:16:44;;;;;;;4.05;1.50;;;;;;;;;;4957983;28;20061;-67
2022/05/02 16:19:15;;;;;;;2.65;0.82;;;;;;;;;;4980618;28;20056;-66
2022/05/02 16:21:46;;;;;;;1.52;0.90;;;;;;;;;;5049497;28;20429;-66
2022/05/02 16:24:17;;;;;;;5.25;2.58;;;;;;;;;;4968028;28;20484;-66
2022/05/02 16:27:00;;;;;;;4.00;1.88;;;;;;;;;;5017896;28;20052;-65
2022/05/02 16:29:30;;;;;;;4.05;1.20;;;;;;;;;;5049304;28;20049;-66
2022/05/02 16:32:02;;;;;;;1.77;1.00;;;;;;;;;;4999972;28;20064;-67
2022/05/02 16:34:47;;;;;;;3.42;1.60;;;;;;;;;;5029025;28;20065;-66
2022/05/02 16:37:39;;;;;;;2.85;1.10;;;;;;;;;;5029011;28;20053;-66
2022/05/02 16:40:25;;;;;;;2.10;0.90;;;;;;;;;;4980244;28;20574;-66
2022/05/02 16:43:05;;;;;;;3.85;1.38;;;;;;;;;;5029150;28;20049;-69
2022/05/02 16:45:36;;;;;;;2.28;1.10;;;;;;;;;;5064078;28;20055;-66
2022/05/02 16:48:11;;;;;;;2.40;1.33;;;;;;;;;;5059855;28;20043;-67
2022/05/02 16:50:42;;;;;;;1.90;0.90;;;;;;;;;;5059898;28;20058;-67
2022/05/02 16:53:14;;;;;;;1.73;1.10;;;;;;;;;;5075593;28;20059;-68
2022/05/02 16:55:44;;;;;;;2.58;0.98;;;;;;;;;;5109655;28;20090;-68
2022/05/02 16:58:18;;;;;;;1.95;1.75;;;;;;;;;;5092536;28;20051;-67
2022/05/02 17:00:55;;;;;;;2.65;1.30;;;;;;;;;;5109454;28;20461;-66
2022/05/02 17:03:32;;;;;;;2.70;1.33;;;;;;;;;;5057680;28;20521;-67